Terminal Aerodrome Forecast
Issued by NWS

Home | Current Version | Previous Version | Text Only | Print | Product List | Glossary Off
Versions: 1 2 3 4 5 6 7 8 9 10 11 12 13

024
FTUS44 KTSA 241720
TAFMLC
TAF
KMLC 241720Z 2418/2518 19006KT P6SM SCT035 SCT250
     FM250100 13004KT P6SM FEW050 BKN250
     FM251500 18007KT P6SM FEW035 SCT250=

USA.gov is the U.S. government's official web portal to all federal, state and local government web resources and services.